createdAt,value
2018-04-17T00:00:50.061Z,12.40
2018-04-17T00:01:49.999Z,12.10
2018-04-17T00:02:49.931Z,13.20
2018-04-17T00:03:49.872Z,13.60
2018-04-17T00:04:49.808Z,12.60
2018-04-17T00:05:49.748Z,13.20
2018-04-17T00:06:49.689Z,12.70
2018-04-17T00:07:49.622Z,14.20
2018-04-17T00:08:49.562Z,13.30
2018-04-17T00:09:49.499Z,13.50
2018-04-17T00:10:49.437Z,13.60
2018-04-17T00:11:49.375Z,12.60
2018-04-17T00:12:49.314Z,13.80
2018-04-17T00:13:49.257Z,14.10
2018-04-17T00:14:49.192Z,12.90
2018-04-17T00:15:49.127Z,13.40
2018-04-17T00:16:49.068Z,14.10
2018-04-17T00:17:49.018Z,12.70
2018-04-17T00:18:48.942Z,13.30
2018-04-17T00:19:48.880Z,12.30
2018-04-17T00:20:48.820Z,13.60
2018-04-17T00:21:48.755Z,13.60
2018-04-17T00:22:48.692Z,13.80
2018-04-17T00:23:48.630Z,12.60
2018-04-17T00:24:48.570Z,13.10
2018-04-17T00:25:48.510Z,12.60
2018-04-17T00:26:48.443Z,13.30
2018-04-17T00:27:48.383Z,13.30
2018-04-17T00:28:48.323Z,12.90
2018-04-17T00:29:48.260Z,13.40
2018-04-17T00:30:48.195Z,13.40
2018-04-17T00:31:48.134Z,13.90
2018-04-17T00:32:48.073Z,13.80
2018-04-17T00:33:48.012Z,12.90
2018-04-17T00:34:47.949Z,13.60
2018-04-17T00:35:47.889Z,13.80
2018-04-17T00:36:47.826Z,13.50
2018-04-17T00:37:47.762Z,13.70
2018-04-17T00:38:47.702Z,13.50
2018-04-17T00:39:47.645Z,13.70
2018-04-17T00:40:47.575Z,14.30
2018-04-17T00:41:47.515Z,13.50
2018-04-17T00:42:47.453Z,13.60
2018-04-17T00:43:47.392Z,13.70
2018-04-17T00:44:47.331Z,13.10
2018-04-17T00:45:47.269Z,13.90
2018-04-17T00:46:47.210Z,14.00
2018-04-17T00:47:47.145Z,13.50
2018-04-17T00:48:47.083Z,13.60
2018-04-17T00:49:47.019Z,13.10
2018-04-17T00:50:46.958Z,14.10
2018-04-17T00:51:46.896Z,14.10
2018-04-17T00:52:46.834Z,14.30
2018-04-17T00:53:46.771Z,14.30
2018-04-17T00:54:46.710Z,14.30
2018-04-17T00:55:46.648Z,13.70
2018-04-17T00:56:46.625Z,13.70
2018-04-17T00:57:46.527Z,14.10
2018-04-17T00:58:46.460Z,14.10
2018-04-17T00:59:46.399Z,14.10
2018-04-17T01:00:46.339Z,14.00
2018-04-17T01:01:46.279Z,14.30
2018-04-17T01:02:46.215Z,14.20
2018-04-17T01:03:46.153Z,14.20
2018-04-17T01:04:46.091Z,13.70
2018-04-17T01:05:46.029Z,14.00
2018-04-17T01:06:45.965Z,14.10
2018-04-17T01:07:45.904Z,15.00
2018-04-17T01:08:45.843Z,15.50
2018-04-17T01:09:45.782Z,14.70
2018-04-17T01:10:45.720Z,14.80
2018-04-17T01:11:45.657Z,14.60
2018-04-17T01:12:45.595Z,15.30
2018-04-17T01:13:45.542Z,15.10
2018-04-17T01:14:45.470Z,15.30
2018-04-17T01:15:45.409Z,16.10
2018-04-17T01:16:45.345Z,14.70
2018-04-17T01:17:45.284Z,15.50
2018-04-17T01:18:45.221Z,15.10
2018-04-17T01:19:45.160Z,15.30
2018-04-17T01:20:45.097Z,15.00
2018-04-17T01:21:45.035Z,15.40
2018-04-17T01:22:44.973Z,15.20
2018-04-17T01:23:44.912Z,15.60
2018-04-17T01:24:44.851Z,15.40
2018-04-17T01:25:44.785Z,15.80
2018-04-17T01:26:44.725Z,16.20
2018-04-17T01:27:44.667Z,14.90
2018-04-17T01:28:44.601Z,16.10
2018-04-17T01:29:44.538Z,15.70
2018-04-17T01:30:44.478Z,15.60
2018-04-17T01:31:44.414Z,16.00
2018-04-17T01:32:44.351Z,15.90
2018-04-17T01:33:44.289Z,15.30
2018-04-17T01:34:44.227Z,15.80
2018-04-17T01:35:44.176Z,16.30
2018-04-17T01:36:44.103Z,15.60
2018-04-17T01:37:44.041Z,15.90
2018-04-17T01:38:43.978Z,15.70
2018-04-17T01:39:43.920Z,16.00
2018-04-17T01:40:43.854Z,16.00
2018-04-17T01:41:43.791Z,16.10
2018-04-17T01:42:43.734Z,16.40
2018-04-17T01:43:43.668Z,16.40
2018-04-17T01:44:43.606Z,16.80
2018-04-17T01:45:43.546Z,16.80
2018-04-17T01:46:43.482Z,16.50
2018-04-17T01:47:43.419Z,15.60
2018-04-17T01:48:43.358Z,16.40
2018-04-17T01:49:43.295Z,16.60
2018-04-17T01:50:43.233Z,15.60
2018-04-17T01:51:43.171Z,16.10
2018-04-17T01:52:43.116Z,17.00
2018-04-17T01:53:43.052Z,16.40
2018-04-17T01:54:42.987Z,16.60
2018-04-17T01:55:42.924Z,16.30
2018-04-17T01:56:42.859Z,16.40
2018-04-17T01:57:42.796Z,16.00
2018-04-17T01:58:42.736Z,16.20
2018-04-17T01:59:42.679Z,15.90
2018-04-17T02:00:42.610Z,16.30
2018-04-17T02:01:42.552Z,15.50
2018-04-17T02:02:42.501Z,16.40
2018-04-17T02:03:42.427Z,16.40
2018-04-17T02:04:42.366Z,17.50
2018-04-17T02:05:42.314Z,17.10
2018-04-17T02:06:42.239Z,17.20
2018-04-17T02:07:42.176Z,16.90
2018-04-17T02:08:42.117Z,16.30
2018-04-17T02:09:42.051Z,16.40
2018-04-17T02:10:41.992Z,17.40
2018-04-17T02:11:41.928Z,17.40
2018-04-17T02:12:41.866Z,17.50
2018-04-17T02:13:41.804Z,17.30
2018-04-17T02:14:41.741Z,17.30
2018-04-17T02:15:41.679Z,19.10
2018-04-17T02:16:41.616Z,19.40
2018-04-17T02:17:41.556Z,18.20
2018-04-17T02:18:41.492Z,19.10
2018-04-17T02:19:41.441Z,19.70
2018-04-17T02:20:41.369Z,20.20
2018-04-17T02:21:41.307Z,19.90
2018-04-17T02:22:41.241Z,19.40
2018-04-17T02:23:41.180Z,21.00
2018-04-17T02:24:41.117Z,20.30
2018-04-17T02:25:41.056Z,20.10
2018-04-17T02:26:40.992Z,19.50
2018-04-17T02:27:40.929Z,19.70
2018-04-17T02:28:40.872Z,18.60
2018-04-17T02:29:40.807Z,19.50
2018-04-17T02:30:40.762Z,19.40
2018-04-17T02:31:40.679Z,20.00
2018-04-17T02:32:40.618Z,19.40
2018-04-17T02:33:40.553Z,19.90
2018-04-17T02:34:40.492Z,19.70
2018-04-17T02:35:40.430Z,19.00
2018-04-17T02:36:40.374Z,19.50
2018-04-17T02:37:40.302Z,20.10
2018-04-17T02:38:40.243Z,19.30
2018-04-17T02:39:40.180Z,18.80
2018-04-17T02:40:40.117Z,19.20
2018-04-17T02:41:40.056Z,18.70
2018-04-17T02:42:39.991Z,17.70
2018-04-17T02:43:39.929Z,18.80
2018-04-17T02:44:39.867Z,19.80
2018-04-17T02:45:39.816Z,18.90
2018-04-17T02:46:39.740Z,20.00
2018-04-17T02:47:39.724Z,18.20
2018-04-17T02:48:39.618Z,18.30
2018-04-17T02:49:39.554Z,18.10
2018-04-17T02:50:39.489Z,18.20
2018-04-17T02:51:39.427Z,17.40
2018-04-17T02:52:39.371Z,18.70
2018-04-17T02:53:39.303Z,18.10
2018-04-17T02:54:39.237Z,17.50
2018-04-17T02:55:39.179Z,17.50
2018-04-17T02:56:39.115Z,17.90
2018-04-17T02:57:39.051Z,17.50
2018-04-17T02:58:38.986Z,17.60
2018-04-17T02:59:38.924Z,17.80
2018-04-17T03:00:38.866Z,17.30
2018-04-17T03:01:38.799Z,18.70
2018-04-17T03:02:38.736Z,17.70
2018-04-17T03:03:38.672Z,18.30
2018-04-17T03:04:38.617Z,17.60
2018-04-17T03:05:38.554Z,17.40
2018-04-17T03:06:38.482Z,18.00
2018-04-17T03:07:38.421Z,17.20
2018-04-17T03:08:38.358Z,17.40
2018-04-17T03:09:38.296Z,17.40
2018-04-17T03:10:38.228Z,17.00
2018-04-17T03:11:38.171Z,17.00
2018-04-17T03:12:38.107Z,16.90
2018-04-17T03:13:38.042Z,17.70
2018-04-17T03:14:37.978Z,17.50
2018-04-17T03:15:37.921Z,17.10
2018-04-17T03:16:37.856Z,17.60
2018-04-17T03:17:37.792Z,17.00
2018-04-17T03:18:37.729Z,17.40
2018-04-17T03:19:37.665Z,17.10
2018-04-17T03:20:37.604Z,17.60
2018-04-17T03:21:37.542Z,16.80
2018-04-17T03:22:37.477Z,17.40
2018-04-17T03:23:37.418Z,17.10
2018-04-17T03:24:37.352Z,18.10
2018-04-17T03:25:37.291Z,17.30
2018-04-17T03:26:37.225Z,17.00
2018-04-17T03:27:37.164Z,17.10
2018-04-17T03:28:37.101Z,17.60
2018-04-17T03:29:37.037Z,17.90
2018-04-17T03:30:36.972Z,18.00
2018-04-17T03:31:36.913Z,17.70
2018-04-17T03:32:36.848Z,17.00
2018-04-17T03:33:36.784Z,17.70
2018-04-17T03:34:36.723Z,16.70
2018-04-17T03:35:36.658Z,16.80
2018-04-17T03:36:36.594Z,17.00
2018-04-17T03:37:36.536Z,17.20
2018-04-17T03:38:36.475Z,17.10
2018-04-17T03:39:36.405Z,16.70
2018-04-17T03:40:36.346Z,16.60
2018-04-17T03:41:36.280Z,16.20
2018-04-17T03:42:36.215Z,17.00
2018-04-17T03:43:36.154Z,17.00
2018-04-17T03:44:36.092Z,17.20
2018-04-17T03:45:36.028Z,16.90
2018-04-17T03:46:35.964Z,17.30
2018-04-17T03:47:35.903Z,16.60
2018-04-17T03:48:35.838Z,16.90
2018-04-17T03:49:35.775Z,17.40
2018-04-17T03:50:35.711Z,16.40
2018-04-17T03:51:35.647Z,16.40
2018-04-17T03:52:35.584Z,17.20
2018-04-17T03:53:35.522Z,17.00
2018-04-17T03:54:35.460Z,16.80
2018-04-17T03:55:35.394Z,16.90
2018-04-17T03:56:35.332Z,17.90
2018-04-17T03:57:35.269Z,17.20
2018-04-17T03:58:35.205Z,16.60
2018-04-17T03:59:35.141Z,18.00
2018-04-17T04:00:35.082Z,17.40
2018-04-17T04:01:35.017Z,17.70
2018-04-17T04:02:34.953Z,17.80
2018-04-17T04:03:34.889Z,18.00
2018-04-17T04:04:34.824Z,18.10
2018-04-17T04:05:34.769Z,18.10
2018-04-17T04:06:34.700Z,17.30
2018-04-17T04:07:34.638Z,17.30
2018-04-17T04:08:34.574Z,17.80
2018-04-17T04:09:34.526Z,17.70
2018-04-17T04:10:34.448Z,17.20
2018-04-17T04:11:34.381Z,16.90
2018-04-17T04:12:34.320Z,16.30
2018-04-17T04:13:34.256Z,16.30
2018-04-17T04:14:34.198Z,16.70
2018-04-17T04:15:34.129Z,17.50
2018-04-17T04:16:34.068Z,17.70
2018-04-17T04:17:34.003Z,17.10
2018-04-17T04:18:33.943Z,17.10
2018-04-17T04:19:33.875Z,16.80
2018-04-17T04:20:33.813Z,17.00
2018-04-17T04:21:33.750Z,17.10
2018-04-17T04:22:33.685Z,17.10
2018-04-17T04:23:33.621Z,17.00
2018-04-17T04:24:33.559Z,16.70
2018-04-17T04:25:33.506Z,16.80
2018-04-17T04:26:33.433Z,16.00
2018-04-17T04:27:33.383Z,16.00
2018-04-17T04:28:33.305Z,16.10
2018-04-17T04:29:33.244Z,15.30
2018-04-17T04:30:33.177Z,15.80
2018-04-17T04:31:33.115Z,17.00
2018-04-17T04:32:33.052Z,15.00
2018-04-17T04:33:32.990Z,15.20
2018-04-17T04:34:32.926Z,16.10
2018-04-17T04:35:32.861Z,15.40
2018-04-17T04:36:32.803Z,15.90
2018-04-17T04:37:32.735Z,16.20
2018-04-17T04:38:32.670Z,14.90
2018-04-17T04:39:32.606Z,16.50
2018-04-17T04:40:32.546Z,16.40
2018-04-17T04:41:32.482Z,15.80
2018-04-17T04:42:32.421Z,16.20
2018-04-17T04:43:32.354Z,15.90
2018-04-17T04:44:32.289Z,16.30
2018-04-17T04:45:32.226Z,16.40
2018-04-17T04:46:32.165Z,16.20
2018-04-17T04:47:32.098Z,16.30
2018-04-17T04:48:32.038Z,16.30
2018-04-17T04:49:31.975Z,15.80
2018-04-17T04:50:31.909Z,15.40
2018-04-17T04:51:31.859Z,15.10
2018-04-17T04:52:31.789Z,15.40
2018-04-17T04:53:31.724Z,16.10
2018-04-17T04:54:31.655Z,15.80
2018-04-17T04:55:31.592Z,16.00
2018-04-17T04:56:31.529Z,16.20
2018-04-17T04:57:31.475Z,15.80
2018-04-17T04:58:31.405Z,16.60
2018-04-17T04:59:31.341Z,16.00
2018-04-17T05:00:31.279Z,16.20
2018-04-17T05:01:31.212Z,15.60
2018-04-17T05:02:31.148Z,17.30
2018-04-17T05:03:31.083Z,16.90
2018-04-17T05:04:31.022Z,16.80
2018-04-17T05:05:30.956Z,16.40
2018-04-17T05:06:30.896Z,17.30
2018-04-17T05:07:30.831Z,16.30
2018-04-17T05:08:30.767Z,16.60
2018-04-17T05:09:30.704Z,16.80
2018-04-17T05:10:30.641Z,15.80
2018-04-17T05:11:30.579Z,16.90
2018-04-17T05:12:30.513Z,16.80
2018-04-17T05:13:30.450Z,15.70
2018-04-17T05:14:30.386Z,16.50
2018-04-17T05:15:30.326Z,17.50
2018-04-17T05:16:30.262Z,17.40
2018-04-17T05:17:30.197Z,17.20
2018-04-17T05:18:30.153Z,17.60
2018-04-17T05:19:30.070Z,17.00
2018-04-17T05:20:30.005Z,17.50
2018-04-17T05:21:29.941Z,16.30
2018-04-17T05:22:29.879Z,16.80
2018-04-17T05:23:29.818Z,17.40
2018-04-17T05:24:29.763Z,17.10
2018-04-17T05:25:29.690Z,16.20
2018-04-17T05:26:29.644Z,16.20
2018-04-17T05:27:29.727Z,16.40
2018-04-17T05:28:29.501Z,15.80
2018-04-17T05:29:29.437Z,15.30
2018-04-17T05:30:29.372Z,16.00
2018-04-17T05:31:29.310Z,16.50
2018-04-17T05:32:29.248Z,16.90
2018-04-17T05:33:29.186Z,16.70
2018-04-17T05:34:29.122Z,15.70
2018-04-17T05:35:29.057Z,17.30
2018-04-17T05:36:28.992Z,15.50
2018-04-17T05:37:28.935Z,17.00
2018-04-17T05:38:28.866Z,16.20
2018-04-17T05:39:28.824Z,16.60
2018-04-17T05:40:28.786Z,15.30
2018-04-17T05:41:28.676Z,14.80
2018-04-17T05:42:28.613Z,15.20
2018-04-17T05:43:28.551Z,16.40
2018-04-17T05:44:28.485Z,15.40
2018-04-17T05:45:28.426Z,14.80
2018-04-17T05:46:28.364Z,13.10
2018-04-17T05:47:28.298Z,13.50
2018-04-17T05:48:28.233Z,12.90
2018-04-17T05:49:28.173Z,12.80
2018-04-17T05:50:28.111Z,13.90
2018-04-17T05:51:28.044Z,12.60
2018-04-17T05:52:27.982Z,13.10
2018-04-17T05:53:27.916Z,13.80
2018-04-17T05:54:27.854Z,13.30
2018-04-17T05:55:27.795Z,13.20
2018-04-17T05:56:27.728Z,13.40
2018-04-17T05:57:27.670Z,13.30
2018-04-17T05:58:27.607Z,13.20
2018-04-17T05:59:27.543Z,13.30
2018-04-17T06:00:27.477Z,13.00
2018-04-17T06:01:27.419Z,12.90
2018-04-17T06:02:27.352Z,12.60
2018-04-17T06:03:27.308Z,13.40
2018-04-17T06:04:27.224Z,12.50
2018-04-17T06:05:27.158Z,12.60
2018-04-17T06:06:27.099Z,13.00
2018-04-17T06:07:27.036Z,13.90
2018-04-17T06:08:26.974Z,15.30
2018-04-17T06:09:26.910Z,15.40
2018-04-17T06:10:26.847Z,15.10
2018-04-17T06:11:26.783Z,13.40
2018-04-17T06:12:26.721Z,13.80
2018-04-17T06:13:26.721Z,12.00
2018-04-17T06:14:26.609Z,12.90
2018-04-17T06:15:26.530Z,12.40
2018-04-17T06:16:26.471Z,12.40
2018-04-17T06:17:26.408Z,13.30
2018-04-17T06:18:26.347Z,11.80
2018-04-17T06:19:26.282Z,12.40
2018-04-17T06:20:26.221Z,12.50
2018-04-17T06:21:26.157Z,12.00
2018-04-17T06:22:26.093Z,12.60
2018-04-17T06:23:26.032Z,12.40
2018-04-17T06:24:25.969Z,12.40
2018-04-17T06:25:25.907Z,12.90
2018-04-17T06:26:25.846Z,12.90
2018-04-17T06:27:25.779Z,11.90
2018-04-17T06:28:25.716Z,12.90
2018-04-17T06:29:25.655Z,13.30
2018-04-17T06:30:25.592Z,12.80
2018-04-17T06:31:25.532Z,14.20
2018-04-17T06:32:25.471Z,13.70
2018-04-17T06:33:25.405Z,14.20
2018-04-17T06:34:25.341Z,12.80
2018-04-17T06:35:25.278Z,13.90
2018-04-17T06:36:25.220Z,13.10
2018-04-17T06:37:25.155Z,13.30
2018-04-17T06:38:25.094Z,14.00
2018-04-17T06:39:25.030Z,13.60
2018-04-17T06:40:24.967Z,14.20
2018-04-17T06:41:24.935Z,15.30
2018-04-17T06:42:24.843Z,14.40
2018-04-17T06:43:24.780Z,15.30
2018-04-17T06:44:24.728Z,14.50
2018-04-17T06:45:24.659Z,13.10
2018-04-17T06:46:24.596Z,13.50
2018-04-17T06:47:24.541Z,13.60
2018-04-17T06:48:24.470Z,13.00
2018-04-17T06:49:24.411Z,14.30
2018-04-17T06:50:24.346Z,13.90
2018-04-17T06:51:24.283Z,13.50
2018-04-17T06:52:24.225Z,13.80
2018-04-17T06:53:24.160Z,13.20
2018-04-17T06:54:24.096Z,11.40
2018-04-17T06:55:24.034Z,13.20
2018-04-17T06:56:23.972Z,14.60
2018-04-17T06:57:23.913Z,15.20
2018-04-17T06:58:23.848Z,15.10
2018-04-17T06:59:23.785Z,14.70
2018-04-17T07:00:23.724Z,14.70
2018-04-17T07:01:23.676Z,15.80
2018-04-17T07:02:23.597Z,15.10
2018-04-17T07:03:23.559Z,14.50
2018-04-17T07:04:23.482Z,14.30
2018-04-17T07:05:23.416Z,14.80
2018-04-17T07:06:23.353Z,14.60
2018-04-17T07:07:23.293Z,15.50
2018-04-17T07:08:23.236Z,15.30
2018-04-17T07:09:23.175Z,15.10
2018-04-17T07:10:23.103Z,15.80
2018-04-17T07:11:23.046Z,15.50
2018-04-17T07:12:22.994Z,16.10
2018-04-17T07:13:22.919Z,16.20
2018-04-17T07:14:22.867Z,14.80
2018-04-17T07:15:22.800Z,15.20
2018-04-17T07:16:22.735Z,15.50
2018-04-17T07:17:22.677Z,16.00
2018-04-17T07:18:22.613Z,15.80
2018-04-17T07:19:22.575Z,15.90
2018-04-17T07:20:22.495Z,15.40
2018-04-17T07:21:22.429Z,14.50
2018-04-17T07:22:22.367Z,15.10
2018-04-17T07:23:22.306Z,14.80
2018-04-17T07:24:22.243Z,14.60
2018-04-17T07:25:22.184Z,15.10
2018-04-17T07:26:22.122Z,15.80
2018-04-17T07:27:22.061Z,16.00
2018-04-17T07:28:22.004Z,16.00
2018-04-17T07:29:21.974Z,16.40
2018-04-17T07:30:21.876Z,15.40
2018-04-17T07:31:21.811Z,14.50
2018-04-17T07:32:21.755Z,15.60
2018-04-17T07:33:21.694Z,14.90
2018-04-17T07:34:21.637Z,15.10
2018-04-17T07:35:21.570Z,15.40
2018-04-17T07:36:21.512Z,16.80
2018-04-17T07:37:21.448Z,25.90
2018-04-17T07:38:21.384Z,18.60
2018-04-17T07:39:21.333Z,16.30
2018-04-17T07:40:21.325Z,15.80
2018-04-17T07:41:21.203Z,16.40
2018-04-17T07:42:21.144Z,16.00
2018-04-17T07:43:21.084Z,14.80
2018-04-17T07:44:21.020Z,16.00
2018-04-17T07:45:20.960Z,16.10
2018-04-17T07:46:20.898Z,15.10
2018-04-17T07:47:20.839Z,16.20
2018-04-17T07:48:20.775Z,16.20
2018-04-17T07:49:20.715Z,14.20
2018-04-17T07:50:20.653Z,16.20
2018-04-17T07:51:20.592Z,16.20
2018-04-17T07:52:20.530Z,16.70
2018-04-17T07:53:20.472Z,16.20
2018-04-17T07:54:20.411Z,16.90
2018-04-17T07:55:20.351Z,15.90
2018-04-17T07:56:20.289Z,15.90
2018-04-17T07:57:20.227Z,15.90
2018-04-17T07:58:20.173Z,16.40
2018-04-17T07:59:20.104Z,17.30
2018-04-17T08:00:20.045Z,16.50
2018-04-17T08:01:19.982Z,17.00
2018-04-17T08:02:19.924Z,16.50
2018-04-17T08:03:19.864Z,17.10
2018-04-17T08:04:19.801Z,16.60
2018-04-17T08:05:19.741Z,16.00
2018-04-17T08:06:19.679Z,16.70
2018-04-17T08:07:19.617Z,16.50
2018-04-17T08:08:19.605Z,16.10
2018-04-17T08:09:19.494Z,16.60
2018-04-17T08:10:19.433Z,16.10
2018-04-17T08:11:19.375Z,16.90
2018-04-17T08:12:19.316Z,15.80
2018-04-17T08:13:19.255Z,16.10
2018-04-17T08:14:19.194Z,16.10
2018-04-17T08:15:19.132Z,16.60
2018-04-17T08:16:19.075Z,15.80
2018-04-17T08:17:19.013Z,15.90
2018-04-17T08:18:18.956Z,16.40
2018-04-17T08:19:18.891Z,15.70
2018-04-17T08:20:18.836Z,16.80
2018-04-17T08:21:18.772Z,16.70
2018-04-17T08:22:18.711Z,16.70
2018-04-17T08:23:18.651Z,16.50
2018-04-17T08:24:18.592Z,16.30
2018-04-17T08:25:18.531Z,16.50
2018-04-17T08:26:18.471Z,16.10
2018-04-17T08:27:18.412Z,16.80
2018-04-17T08:28:18.350Z,16.20
2018-04-17T08:29:18.289Z,15.70
2018-04-17T08:30:18.229Z,15.80
2018-04-17T08:31:18.169Z,15.60
2018-04-17T08:32:18.109Z,15.60
2018-04-17T08:33:18.051Z,16.10
2018-04-17T08:34:17.993Z,15.20
2018-04-17T08:35:17.930Z,15.80
2018-04-17T08:36:17.873Z,16.70
2018-04-17T08:37:17.809Z,16.30
2018-04-17T08:38:17.755Z,16.00
2018-04-17T08:39:17.689Z,16.20
2018-04-17T08:40:17.630Z,16.20
2018-04-17T08:41:17.571Z,16.80
2018-04-17T08:42:17.513Z,16.70
2018-04-17T08:43:17.457Z,16.30
2018-04-17T08:44:17.393Z,16.40
2018-04-17T08:45:17.331Z,15.70
2018-04-17T08:46:17.271Z,15.80
2018-04-17T08:47:17.210Z,15.60
2018-04-17T08:48:17.154Z,16.10
2018-04-17T08:49:17.091Z,16.60
2018-04-17T08:50:17.032Z,15.70
2018-04-17T08:51:16.970Z,15.70
2018-04-17T08:52:16.914Z,16.10
2018-04-17T08:53:16.852Z,16.90
2018-04-17T08:54:16.797Z,16.40
2018-04-17T08:55:16.733Z,17.30
2018-04-17T08:56:16.673Z,16.10
2018-04-17T08:57:16.614Z,15.70
2018-04-17T08:58:16.553Z,16.00
2018-04-17T08:59:16.497Z,15.50
2018-04-17T09:00:16.434Z,14.60
2018-04-17T09:01:16.377Z,14.70
2018-04-17T09:02:16.313Z,14.10
2018-04-17T09:03:16.256Z,14.50
2018-04-17T09:04:16.197Z,13.60
2018-04-17T09:05:16.185Z,13.70
2018-04-17T09:06:16.079Z,13.50
2018-04-17T09:07:16.018Z,12.90
2018-04-17T09:08:15.959Z,13.10
2018-04-17T09:09:15.899Z,13.30
2018-04-17T09:10:15.838Z,13.90
2018-04-17T09:11:15.779Z,13.50
2018-04-17T09:12:15.722Z,14.30
2018-04-17T09:13:15.659Z,14.90
2018-04-17T09:14:15.604Z,14.80
2018-04-17T09:15:15.546Z,14.00
2018-04-17T09:16:15.487Z,14.30
2018-04-17T09:17:15.424Z,14.00
2018-04-17T09:18:15.367Z,14.40
2018-04-17T09:19:15.306Z,13.80
2018-04-17T09:20:15.246Z,14.30
2018-04-17T09:21:15.188Z,14.00
2018-04-17T09:22:15.134Z,13.90
2018-04-17T09:23:15.071Z,12.90
2018-04-17T09:24:15.013Z,11.70
2018-04-17T09:25:14.954Z,11.70
2018-04-17T09:26:14.892Z,12.10
2018-04-17T09:27:14.837Z,10.20
2018-04-17T09:28:14.777Z,10.20
2018-04-17T09:29:14.740Z,9.20
2018-04-17T09:30:14.659Z,8.40
2018-04-17T09:31:14.599Z,7.50
2018-04-17T09:32:14.543Z,6.40
2018-04-17T09:33:14.547Z,6.30
2018-04-17T09:34:14.420Z,8.80
2018-04-17T09:35:14.365Z,8.20
2018-04-17T09:36:14.359Z,7.30
2018-04-17T09:37:14.248Z,7.70
2018-04-17T09:38:14.190Z,7.90
2018-04-17T09:39:14.130Z,8.20
2018-04-17T09:40:14.071Z,6.60
2018-04-17T09:41:14.016Z,5.10
2018-04-17T09:42:13.955Z,5.30
2018-04-17T09:43:13.894Z,4.80
2018-04-17T09:44:13.841Z,4.60
2018-04-17T09:45:13.781Z,5.10
2018-04-17T09:46:13.727Z,6.80
2018-04-17T09:47:13.665Z,6.70
2018-04-17T09:48:13.607Z,5.80
2018-04-17T09:49:13.548Z,6.00
2018-04-17T09:50:13.492Z,6.80
2018-04-17T09:51:13.436Z,6.30
2018-04-17T09:52:13.376Z,6.80
2018-04-17T09:53:13.317Z,7.00
2018-04-17T09:54:13.260Z,6.00
2018-04-17T09:55:13.204Z,5.40
2018-04-17T09:56:13.143Z,5.40
2018-04-17T09:57:13.088Z,4.40
2018-04-17T09:58:13.029Z,5.20
2018-04-17T09:59:12.971Z,4.70
2018-04-17T10:00:12.916Z,4.90
2018-04-17T10:01:12.869Z,4.90
2018-04-17T10:02:12.821Z,6.00
2018-04-17T10:03:12.742Z,5.80
2018-04-17T10:04:12.686Z,5.70
2018-04-17T10:05:12.629Z,5.60
2018-04-17T10:06:12.572Z,6.50
2018-04-17T10:07:12.511Z,6.50
2018-04-17T10:08:12.456Z,6.60
2018-04-17T10:09:12.456Z,7.20
2018-04-17T10:10:12.343Z,6.70
2018-04-17T10:11:12.284Z,6.60
2018-04-17T10:12:12.229Z,6.60
2018-04-17T10:13:12.173Z,6.00
2018-04-17T10:14:12.113Z,6.20
2018-04-17T10:15:12.063Z,5.60
2018-04-17T10:16:12.017Z,5.60
2018-04-17T10:17:11.945Z,5.80
2018-04-17T10:18:11.888Z,6.20
2018-04-17T10:19:11.830Z,5.80
2018-04-17T10:20:11.774Z,5.80
2018-04-17T10:21:11.715Z,6.70
2018-04-17T10:22:11.660Z,5.90
2018-04-17T10:23:11.602Z,6.30
2018-04-17T10:24:11.545Z,6.10
2018-04-17T10:25:11.488Z,6.20
2018-04-17T10:26:11.433Z,6.10
2018-04-17T10:27:11.378Z,6.30
2018-04-17T10:28:11.320Z,6.30
2018-04-17T10:29:11.263Z,6.80
2018-04-17T10:30:11.206Z,7.20
2018-04-17T10:31:11.148Z,7.10
2018-04-17T10:32:11.099Z,7.60
2018-04-17T10:33:11.040Z,6.90
2018-04-17T10:34:10.986Z,7.60
2018-04-17T10:35:10.923Z,7.60
2018-04-17T10:36:10.867Z,7.20
2018-04-17T10:37:10.810Z,7.10
2018-04-17T10:38:10.751Z,7.10
2018-04-17T10:39:10.697Z,6.80
2018-04-17T10:40:10.645Z,7.50
2018-04-17T10:41:10.582Z,7.20
2018-04-17T10:42:10.527Z,8.00
2018-04-17T10:43:10.467Z,8.10
2018-04-17T10:44:10.413Z,8.00
2018-04-17T10:45:10.355Z,8.20
2018-04-17T10:46:10.303Z,6.40
2018-04-17T10:47:10.240Z,7.80
2018-04-17T10:48:10.183Z,6.90
2018-04-17T10:49:10.128Z,8.80
2018-04-17T10:50:10.068Z,7.30
2018-04-17T10:51:10.017Z,6.80
2018-04-17T10:52:09.955Z,6.70
2018-04-17T10:53:09.899Z,6.50
2018-04-17T10:54:09.840Z,6.40
2018-04-17T10:55:09.783Z,5.80
2018-04-17T10:56:09.727Z,5.80
2018-04-17T10:57:09.668Z,5.90
2018-04-17T10:58:09.611Z,6.20
2018-04-17T10:59:09.559Z,5.80
2018-04-17T11:00:09.499Z,5.50
2018-04-17T11:01:09.446Z,6.20
2018-04-17T11:02:09.385Z,5.70
2018-04-17T11:03:09.337Z,6.40
2018-04-17T11:04:09.289Z,6.30
2018-04-17T11:05:09.290Z,6.20
2018-04-17T11:06:09.153Z,5.90
2018-04-17T11:07:09.095Z,6.10
2018-04-17T11:08:09.039Z,6.00
2018-04-17T11:09:08.983Z,6.90
2018-04-17T11:10:08.926Z,6.40
2018-04-17T11:11:08.870Z,6.70
2018-04-17T11:12:08.810Z,7.00
2018-04-17T11:13:08.751Z,7.00
2018-04-17T11:14:08.714Z,6.50
2018-04-17T11:15:08.645Z,6.70
2018-04-17T11:16:08.581Z,7.00
2018-04-17T11:17:08.519Z,6.20
2018-04-17T11:18:08.462Z,6.00
2018-04-17T11:19:08.404Z,6.00
2018-04-17T11:20:08.347Z,5.60
2018-04-17T11:21:08.290Z,6.00
2018-04-17T11:22:08.238Z,5.50
2018-04-17T11:23:08.223Z,4.90
2018-04-17T11:24:08.119Z,5.10
2018-04-17T11:25:08.061Z,5.90
2018-04-17T11:26:08.004Z,5.30
2018-04-17T11:27:07.945Z,5.20
2018-04-17T11:28:07.895Z,5.20
2018-04-17T11:29:07.863Z,5.40
2018-04-17T11:30:07.776Z,5.00
2018-04-17T11:31:07.720Z,4.60
2018-04-17T11:32:07.663Z,4.70
2018-04-17T11:33:07.614Z,4.30
2018-04-17T11:34:07.554Z,4.20
2018-04-17T11:35:07.491Z,3.80
2018-04-17T11:36:07.432Z,3.70
2018-04-17T11:37:07.380Z,3.80
2018-04-17T11:38:07.321Z,4.10
2018-04-17T11:39:07.267Z,4.80
2018-04-17T11:40:07.209Z,4.00
2018-04-17T11:41:07.152Z,4.50
2018-04-17T11:42:07.094Z,4.80
2018-04-17T11:43:07.073Z,4.50
2018-04-17T11:44:06.982Z,4.70
2018-04-17T11:45:06.929Z,4.60
2018-04-17T11:46:06.867Z,4.50
2018-04-17T11:47:06.810Z,4.50
2018-04-17T11:48:06.755Z,4.00
2018-04-17T11:49:06.699Z,4.30
2018-04-17T11:50:06.639Z,4.60
2018-04-17T11:51:06.585Z,4.10
2018-04-17T11:54:28.377Z,3.80
2018-04-17T11:56:03.850Z,3.50
2018-04-17T11:56:28.240Z,3.50
2018-04-17T11:57:28.187Z,4.10
2018-04-17T11:58:28.123Z,3.70
2018-04-17T11:59:28.068Z,4.50
2018-04-17T12:00:28.010Z,4.90
2018-04-17T12:01:27.952Z,5.50
2018-04-17T12:02:27.896Z,5.60
2018-04-17T12:03:27.838Z,6.40
2018-04-17T12:04:27.782Z,5.80
2018-04-17T12:05:27.723Z,5.60
2018-04-17T12:06:27.667Z,5.90
2018-04-17T12:07:27.609Z,5.80
2018-04-17T12:08:27.553Z,5.40
2018-04-17T12:09:27.498Z,5.60
2018-04-17T12:10:27.437Z,5.40
2018-04-17T12:11:27.381Z,5.60
2018-04-17T12:12:27.336Z,5.70
2018-04-17T12:13:27.268Z,5.90
2018-04-17T12:14:27.209Z,5.10
2018-04-17T12:15:27.152Z,5.80
2018-04-17T12:16:27.097Z,5.30
2018-04-17T12:17:27.039Z,5.20
2018-04-17T12:18:26.984Z,5.80
2018-04-17T12:19:26.925Z,5.50
2018-04-17T12:20:26.875Z,5.40
2018-04-17T12:21:26.811Z,5.20
2018-04-17T12:22:26.754Z,5.10
2018-04-17T12:23:26.695Z,5.10
2018-04-17T12:24:26.644Z,5.00
2018-04-17T12:25:26.582Z,4.90
2018-04-17T12:26:26.528Z,4.90
2018-04-17T12:27:26.468Z,5.10
2018-04-17T12:28:26.411Z,4.70
2018-04-17T12:29:26.356Z,4.80
2018-04-17T12:30:26.296Z,5.00
2018-04-17T12:31:26.243Z,5.30
2018-04-17T12:32:26.184Z,4.80
2018-04-17T12:33:26.127Z,4.30
2018-04-17T12:34:26.066Z,5.30
2018-04-17T12:35:26.010Z,5.00
2018-04-17T12:36:25.953Z,4.90
2018-04-17T12:37:25.892Z,5.20
2018-04-17T12:38:25.840Z,5.30
2018-04-17T12:39:25.780Z,5.00
2018-04-17T12:40:25.722Z,5.20
2018-04-17T12:41:25.667Z,5.30
2018-04-17T12:42:25.607Z,5.00
2018-04-17T12:43:25.552Z,5.00
2018-04-17T12:44:25.551Z,4.90
2018-04-17T12:45:25.436Z,5.40
2018-04-17T12:46:25.384Z,5.60
2018-04-17T12:47:25.321Z,5.20
2018-04-17T12:48:25.265Z,5.30
2018-04-17T12:49:25.208Z,5.30
2018-04-17T12:50:25.147Z,5.70
2018-04-17T12:51:25.095Z,5.60
2018-04-17T12:52:25.039Z,5.80
2018-04-17T12:53:24.974Z,7.20
2018-04-17T12:54:24.928Z,6.00
2018-04-17T12:55:24.859Z,6.20
2018-04-17T12:56:24.801Z,6.30
2018-04-17T12:57:24.743Z,5.80
2018-04-17T12:58:24.691Z,5.60
2018-04-17T12:59:24.627Z,6.10
2018-04-17T13:00:24.570Z,6.20
2018-04-17T13:01:24.514Z,6.10